Главная страница
METAR-TAF:

METAR-TAF

Аэропорты :

Орхус, Дания

широта: 56-18N, долгота: 010-37E, высота над уровнем моря: 23 м

Текущие метеонаблюдения

Эта сводка был подготовлена 15 минут назад, в 19:50 UTC
Ветер 6 Узел от западный-юго-западный, изменяющийся между южный-юго-западный и западный
Температура 10°C
Влажность 82%
Давление 1019 hPa
Видимость 10 км и более

METAR: EKAH 221950Z AUTO 24006KT 210V270 9999NDV NCD 10/07 Q1019

Время: 22:05 (20:05 UTC)

Прогноз

Эта сводка был подготовлена 2 часа и 57 минут назад, в 17:08 UTC
Прогноз действительный с 22-го 18 UTC до 23-го 18 UTC
Ветер 8 Узел от западный-юго-западный
Видимость 10 км и более
Рассеянная облачность на высоте 2500 фута

TAF: EKAH 221708Z 2218/2318 24008KT 9999 BKN025

Метеонаблюдения и прогнозы для более 4000 аэропортов (сводки METAR и TAF).

Имеющиеся станции представлены на карте желтыми и красными точками.

Чтобы увидеть название станции, наведите на нее мышь.

Затем щелкните, чтобы увидеть метеонаблюдения и метеопрогнозы.

Управление картой: чтобы увеличить масштаб, щелкните зеленые кнопки с черным крестиком; чтобы уменьшить масштаб, щелкните зеленую кнопку с тире; для просмотра соседних карт щелкайте зеленые стрелки.


METAR-TAF: